Argus, CA

4:11 PM PST on March 02, 2015 (GMT -0800)
Searles Valley | Change Station
CLOSE
Current Station
Personal Weather Station
Location: Trona, CA
Elevation: 1696 ft
Nearby Weather Stations

Elev 1696 ft 35.77 °N, 117.38 °W | Updated 6 seconds ago

Mostly Cloudy
Mostly Cloudy
61.2 °F
Feels Like 61.2 °F
N
0.0
Wind Variable Wind from North
Gusts 0.0 mph

Today
High -- | Low -- °F
--% Chance of Precip.
Yesterday
High -- | Low -- °F
Precip. -- in
6:18 AM 5:45 PM
Waxing Gibbous, 93% visible
Pressure 29.77 in
Visibility 10.0 miles
Clouds Few 2500 ft
Few 6000 ft
Scattered Clouds 10000 ft
Dew Point 30 °F
Humidity 31%
Rainfall 0.00 in
Snow Depth Not available.
UV 1 out of 12
Pollen 6.70 out of 12
Air Quality Not available.
Flu Activity Not available.
METAR KNID 022356Z 20015G22KT 10SM FEW025 FEW060 SCT100 14/M02 A2977 RMK AO2 SLP080 T01391017 10144 20094 55000 $

More Conditions Fewer Conditions

Pressure 29.77 in
Visibility 10.0 miles
Clouds Few 2500 ft
Few 6000 ft
Scattered Clouds 10000 ft
Dew Point 30 °F
Humidity 31%
Rainfall 0.00 in
Snow Depth Not available.
UV 1 out of 12
Pollen 6.70 out of 12
Air Quality Not available.
Flu Activity Not available.
METAR KNID 022356Z 20015G22KT 10SM FEW025 FEW060 SCT100 14/M02 A2977 RMK AO2 SLP080 T01391017 10144 20094 55000 $

More Conditions Fewer Conditions

10-Day Weather Forecast

Almanac

Astronomy

Mar. 02, 2015 Rise Set
Actual Time
Civil Twilight
Nautical Twilight
Astronomical Twilight
Moon
Length of Visible Light
Length of Day
Tomorrow will be .
, % of the Moon is Illuminated

Today's Extremes

State Highs State Lows

Community

WunderPhotos

Upload Photos

1,802,005 photos uploaded!

WunderBlogs® & News

Nearby

Air Quality

  Air Quality AQ Index Pollutant
Not available.

Snow Depth

Station Depth Elevation

Earthquake Activity

City Distance Mag. Time & Date
Minimum magnitude displayed is 2.5.

Coastal Water Temperatures

Place Temperature

Nearby Weather Stations